createdAt,value
2018-06-24T00:02:12.502Z,100453.03
2018-06-24T00:04:42.394Z,100452.20
2018-06-24T00:07:12.354Z,100451.70
2018-06-24T00:09:42.302Z,100455.36
2018-06-24T00:12:12.356Z,100454.37
2018-06-24T00:14:42.273Z,100454.37
2018-06-24T00:17:12.344Z,100450.87
2018-06-24T00:19:42.184Z,100452.70
2018-06-24T00:22:12.385Z,100443.70
2018-06-24T00:24:42.593Z,100444.72
2018-06-24T00:27:12.755Z,100442.21
2018-06-24T00:29:42.614Z,100446.19
2018-06-24T00:32:12.750Z,100447.37
2018-06-24T00:34:42.747Z,100444.39
2018-06-24T00:37:13.186Z,100442.21
2018-06-24T00:39:43.247Z,100443.38
2018-06-24T00:42:13.423Z,100441.06
2018-06-24T00:44:43.292Z,100448.37
2018-06-24T00:47:13.234Z,100438.38
2018-06-24T00:49:43.386Z,100436.73
2018-06-24T00:52:15.019Z,100438.22
2018-06-24T00:54:45.492Z,100433.75
2018-06-24T00:57:15.392Z,100434.08
2018-06-24T00:59:55.696Z,100429.10
2018-06-24T01:02:25.642Z,100430.74
2018-06-24T01:04:55.517Z,100417.92
2018-06-24T01:07:25.474Z,100416.25
2018-06-24T01:09:55.373Z,100409.13
2018-06-24T01:12:25.444Z,100412.46
2018-06-24T01:14:55.246Z,100410.80
2018-06-24T01:17:25.315Z,100407.80
2018-06-24T01:19:57.427Z,100401.81
2018-06-24T01:22:28.363Z,100405.80
2018-06-24T01:24:58.600Z,100405.59
2018-06-24T01:27:28.456Z,100404.08
2018-06-24T01:29:58.386Z,100405.79
2018-06-24T01:32:28.334Z,100402.13
2018-06-24T01:34:58.309Z,100399.97
2018-06-24T01:37:28.333Z,100401.81
2018-06-24T01:39:58.205Z,100403.95
2018-06-24T01:42:28.312Z,100400.61
2018-06-24T01:44:58.616Z,100395.15
2018-06-24T01:47:28.600Z,100394.81
2018-06-24T01:49:58.681Z,100396.28
2018-06-24T01:52:28.566Z,100394.95
2018-06-24T01:54:58.417Z,100391.44
2018-06-24T01:57:28.386Z,100382.64
2018-06-24T01:59:58.314Z,100386.78
2018-06-24T02:02:28.394Z,100384.47
2018-06-24T02:04:58.248Z,100384.47
2018-06-24T02:07:28.326Z,100381.13
2018-06-24T02:09:58.186Z,100380.80
2018-06-24T02:12:28.305Z,100385.96
2018-06-24T02:14:58.177Z,100383.30
2018-06-24T02:17:28.269Z,100380.31
2018-06-24T02:19:58.343Z,100384.28
2018-06-24T02:22:28.313Z,100379.93
2018-06-24T02:24:58.305Z,100377.75
2018-06-24T02:27:28.162Z,100378.07
2018-06-24T02:29:58.379Z,100374.61
2018-06-24T02:32:28.223Z,100374.27
2018-06-24T02:34:58.300Z,100369.77
2018-06-24T02:37:28.238Z,100374.08
2018-06-24T02:39:58.309Z,100366.44
2018-06-24T02:42:28.260Z,100374.43
2018-06-24T02:44:58.274Z,100377.27
2018-06-24T02:47:28.213Z,100372.94
2018-06-24T02:49:58.297Z,100372.41
2018-06-24T02:52:28.288Z,100372.08
2018-06-24T02:54:58.383Z,100374.75
2018-06-24T02:57:28.204Z,100368.11
2018-06-24T02:59:58.391Z,100374.59
2018-06-24T03:02:28.221Z,100377.41
2018-06-24T03:04:58.445Z,100380.59
2018-06-24T03:07:28.288Z,100374.61
2018-06-24T03:09:58.284Z,100371.63
2018-06-24T03:12:28.176Z,100369.78
2018-06-24T03:14:58.024Z,100369.64
2018-06-24T03:17:27.919Z,100372.30
2018-06-24T03:19:57.838Z,100378.78
2018-06-24T03:22:27.699Z,100374.66
2018-06-24T03:24:58.043Z,100373.01
2018-06-24T03:27:27.962Z,100368.87
2018-06-24T03:29:57.909Z,100369.54
2018-06-24T03:32:27.820Z,100371.88
2018-06-24T03:34:57.701Z,100342.87
2018-06-24T03:37:28.093Z,100376.53
2018-06-24T03:39:58.047Z,100377.86
2018-06-24T03:42:28.031Z,100377.34
2018-06-24T03:44:57.870Z,100384.17
2018-06-24T03:47:28.373Z,100380.19
2018-06-24T03:49:59.263Z,100377.55
2018-06-24T03:52:30.204Z,100375.36
2018-06-24T03:55:01.090Z,100370.23
2018-06-24T03:57:32.149Z,100374.56
2018-06-24T04:00:03.015Z,100378.88
2018-06-24T04:02:34.047Z,100374.36
2018-06-24T04:05:05.071Z,100360.92
2018-06-24T04:07:36.110Z,100362.92
2018-06-24T04:10:07.009Z,100364.08
2018-06-24T04:12:38.394Z,100367.59
2018-06-24T04:15:09.314Z,100362.25
2018-06-24T04:17:40.300Z,100361.25
2018-06-24T04:20:11.157Z,100361.58
2018-06-24T04:22:43.534Z,100365.58
2018-06-24T04:25:13.388Z,100365.58
2018-06-24T04:27:44.342Z,100361.27
2018-06-24T04:30:15.617Z,100357.61
2018-06-24T04:32:45.515Z,100357.95
2018-06-24T04:35:17.246Z,100362.28
2018-06-24T04:37:47.283Z,100359.45
2018-06-24T04:40:18.154Z,100353.64
2018-06-24T04:42:49.100Z,100354.64
2018-06-24T04:45:18.966Z,100353.97
2018-06-24T04:47:50.309Z,100358.30
2018-06-24T04:50:21.199Z,100355.97
2018-06-24T04:52:52.098Z,100362.63
2018-06-24T04:55:23.032Z,100360.33
2018-06-24T04:57:53.045Z,100354.50
2018-06-24T05:00:23.979Z,100354.16
2018-06-24T05:02:55.353Z,100356.16
2018-06-24T05:05:26.200Z,100355.01
2018-06-24T05:07:57.113Z,100350.68
2018-06-24T05:10:28.020Z,100357.16
2018-06-24T05:12:59.008Z,100352.50
2018-06-24T05:15:30.318Z,100351.02
2018-06-24T05:18:01.230Z,100351.68
2018-06-24T05:20:32.015Z,100360.33
2018-06-24T05:23:02.971Z,100353.16
2018-06-24T05:25:34.251Z,100354.01
2018-06-24T05:28:05.124Z,100358.00
2018-06-24T05:30:35.912Z,100355.16
2018-06-24T05:33:07.363Z,100347.83
2018-06-24T05:35:38.267Z,100347.34
2018-06-24T05:38:09.177Z,100347.84
2018-06-24T05:40:40.041Z,100348.66
2018-06-24T05:43:11.076Z,100343.99
2018-06-24T05:45:42.106Z,100343.66
2018-06-24T05:48:13.021Z,100342.33
2018-06-24T05:50:44.004Z,100345.66
2018-06-24T05:53:14.872Z,100331.67
2018-06-24T05:55:46.273Z,100335.98
2018-06-24T05:58:17.250Z,100331.83
2018-06-24T06:00:48.058Z,100334.15
2018-06-24T06:03:18.978Z,100329.94
2018-06-24T06:05:50.224Z,100344.92
2018-06-24T06:08:21.538Z,100341.27
2018-06-24T06:10:52.193Z,100342.25
2018-06-24T06:13:23.022Z,100344.93
2018-06-24T06:15:54.257Z,100346.25
2018-06-24T06:18:26.169Z,100352.41
2018-06-24T06:20:56.402Z,100353.89
2018-06-24T06:23:27.225Z,100349.89
2018-06-24T06:25:58.646Z,100357.37
2018-06-24T06:28:29.256Z,100349.67
2018-06-24T06:31:01.213Z,100347.98
2018-06-24T06:33:31.830Z,100349.13
2018-06-24T06:36:03.295Z,100342.83
2018-06-24T06:38:33.202Z,100349.36
2018-06-24T06:41:03.100Z,100353.02
2018-06-24T06:43:33.532Z,100347.83
2018-06-24T06:46:04.738Z,100344.80
2018-06-24T06:48:35.306Z,100348.30
2018-06-24T06:51:05.218Z,100352.56
2018-06-24T06:53:35.321Z,100348.89
2018-06-24T06:56:05.992Z,100351.17
2018-06-24T06:58:35.927Z,100344.31
2018-06-24T07:01:06.427Z,100341.30
2018-06-24T07:03:36.357Z,100343.36
2018-06-24T07:06:06.183Z,100346.02
2018-06-24T07:08:36.045Z,100350.70
2018-06-24T07:11:06.405Z,100339.98
2018-06-24T07:13:36.248Z,100339.23
2018-06-24T07:16:07.105Z,100337.64
2018-06-24T07:18:37.477Z,100347.12
2018-06-24T07:21:07.548Z,100340.81
2018-06-24T07:23:37.642Z,100346.53
2018-06-24T07:26:08.035Z,100349.93
2018-06-24T07:28:37.941Z,100351.05
2018-06-24T07:31:07.866Z,100351.38
2018-06-24T07:36:20.229Z,100349.85
2018-06-24T07:38:50.051Z,100351.34
2018-06-24T07:41:19.982Z,100351.52
2018-06-24T07:43:49.957Z,100358.81
2018-06-24T07:46:19.953Z,100356.77
2018-06-24T07:48:49.930Z,100360.39
2018-06-24T07:51:19.891Z,100360.30
2018-06-24T07:53:50.168Z,100355.45
2018-06-24T07:56:20.174Z,100356.45
2018-06-24T07:58:50.219Z,100355.13
2018-06-24T08:01:20.126Z,100364.34
2018-06-24T08:03:50.018Z,100358.73
2018-06-24T08:06:19.958Z,100357.69
2018-06-24T08:08:49.959Z,100354.98
2018-06-24T08:11:19.890Z,100357.41
2018-06-24T08:14:03.306Z,100337.73
2018-06-24T08:16:33.235Z,100350.78
2018-06-24T08:19:03.945Z,100359.41
2018-06-24T08:21:33.970Z,100354.91
2018-06-24T08:24:03.973Z,100353.38
2018-06-24T08:26:34.128Z,100357.58
2018-06-24T08:29:04.197Z,100359.89
2018-06-24T08:31:34.180Z,100338.75
2018-06-24T08:34:04.804Z,100354.96
2018-06-24T08:36:40.237Z,100354.27
2018-06-24T08:39:11.492Z,100360.31
2018-06-24T08:41:41.344Z,100358.97
2018-06-24T08:44:11.387Z,100359.95
2018-06-24T08:46:41.319Z,100364.93
2018-06-24T08:49:11.248Z,100362.13
2018-06-24T08:51:41.187Z,100372.37
2018-06-24T08:54:11.109Z,100362.98
2018-06-24T08:56:41.109Z,100369.59
2018-06-24T08:59:11.094Z,100385.05
2018-06-24T09:01:41.020Z,100379.72
2018-06-24T09:04:10.934Z,100373.49
2018-06-24T09:06:41.591Z,100377.04
2018-06-24T09:09:11.917Z,100370.06
2018-06-24T09:11:41.914Z,100380.66
2018-06-24T09:14:12.400Z,100376.06
2018-06-24T09:16:42.321Z,100354.50
2018-06-24T09:19:12.160Z,100373.38
2018-06-24T09:21:42.330Z,100375.55
2018-06-24T09:24:12.752Z,100380.52
2018-06-24T09:26:42.867Z,100370.31
2018-06-24T09:29:12.952Z,100376.02
2018-06-24T09:31:42.855Z,100373.22
2018-06-24T09:34:12.926Z,100374.97
2018-06-24T09:36:42.871Z,100380.77
2018-06-24T09:39:14.099Z,100381.82
2018-06-24T09:41:43.963Z,100385.26
2018-06-24T09:44:13.879Z,100387.36
2018-06-24T09:46:43.930Z,100392.42
2018-06-24T09:49:13.907Z,100387.53
2018-06-24T09:51:43.946Z,100386.10
2018-06-24T09:54:13.833Z,100382.19
2018-06-24T09:56:43.928Z,100393.91
2018-06-24T09:59:13.921Z,100392.05
2018-06-24T10:01:43.905Z,100387.65
2018-06-24T10:04:14.020Z,100373.19
2018-06-24T10:06:43.878Z,100381.66
2018-06-24T10:09:15.253Z,100385.26
2018-06-24T10:11:45.158Z,100378.66
2018-06-24T10:14:15.333Z,100383.26
2018-06-24T10:16:45.536Z,100374.41
2018-06-24T10:19:15.785Z,100372.45
2018-06-24T10:21:46.458Z,100371.21
2018-06-24T10:24:16.347Z,100374.31
2018-06-24T10:26:46.257Z,100363.41
2018-06-24T10:29:16.237Z,100364.12
2018-06-24T10:31:46.181Z,100360.44
2018-06-24T10:34:16.148Z,100360.81
2018-06-24T10:36:46.092Z,100358.48
2018-06-24T10:39:16.067Z,100352.05
2018-06-24T10:41:45.993Z,100347.02
2018-06-24T10:44:15.952Z,100351.59
2018-06-24T10:46:45.895Z,100331.30
2018-06-24T10:49:15.820Z,100351.53
2018-06-24T10:51:45.842Z,100344.63
2018-06-24T10:54:15.878Z,100336.22
2018-06-24T10:56:45.780Z,100346.31
2018-06-24T10:59:15.913Z,100354.83
2018-06-24T11:01:45.784Z,100352.80
2018-06-24T11:04:15.964Z,100349.36
2018-06-24T11:06:45.823Z,100354.31
2018-06-24T11:09:15.907Z,100356.25
2018-06-24T11:11:45.921Z,100353.62
2018-06-24T11:14:15.879Z,100355.32
2018-06-24T11:16:46.021Z,100345.27
2018-06-24T11:19:16.073Z,100349.34
2018-06-24T11:21:45.941Z,100349.45
2018-06-24T11:24:16.099Z,100348.98
2018-06-24T11:26:46.055Z,100347.45
2018-06-24T11:29:16.061Z,100348.13
2018-06-24T11:31:46.166Z,100348.18
2018-06-24T11:34:16.058Z,100333.80
2018-06-24T11:36:46.208Z,100333.56
2018-06-24T11:39:16.139Z,100328.02
2018-06-24T11:41:46.041Z,100341.22
2018-06-24T11:44:15.959Z,100340.84
2018-06-24T11:46:45.803Z,100332.91
2018-06-24T11:49:16.594Z,100336.20
2018-06-24T11:51:46.784Z,100326.01
2018-06-24T11:54:16.879Z,100318.53
2018-06-24T11:56:46.782Z,100321.91
2018-06-24T11:59:17.370Z,100321.13
2018-06-24T12:01:47.219Z,100318.55
2018-06-24T12:04:17.155Z,100314.81
2018-06-24T12:06:47.560Z,100318.64
2018-06-24T12:09:17.747Z,100322.41
2018-06-24T12:11:47.916Z,100316.46
2018-06-24T12:14:17.825Z,100315.30
2018-06-24T12:16:47.976Z,100318.11
2018-06-24T12:19:17.862Z,100319.81
2018-06-24T12:21:47.858Z,100318.33
2018-06-24T12:24:18.130Z,100315.64
2018-06-24T12:26:48.050Z,100318.50
2018-06-24T12:29:17.871Z,100314.13
2018-06-24T12:31:47.826Z,100315.30
2018-06-24T12:34:17.781Z,100321.22
2018-06-24T12:36:49.103Z,100318.22
2018-06-24T12:39:19.765Z,100310.41
2018-06-24T12:41:49.818Z,100305.91
2018-06-24T12:44:19.860Z,100302.03
2018-06-24T12:46:50.166Z,100308.91
2018-06-24T12:49:20.048Z,100307.66
2018-06-24T12:51:49.868Z,100298.84
2018-06-24T12:54:19.916Z,100295.76
2018-06-24T12:56:49.739Z,100296.17
2018-06-24T12:59:19.937Z,100289.56
2018-06-24T13:01:50.090Z,100281.20
2018-06-24T13:04:20.305Z,100287.42
2018-06-24T13:06:50.138Z,100298.44
2018-06-24T13:09:20.278Z,100298.13
2018-06-24T13:11:51.694Z,100296.59
2018-06-24T13:14:21.719Z,100304.53
2018-06-24T13:16:51.710Z,100306.23
2018-06-24T13:19:21.764Z,100301.67
2018-06-24T13:21:51.624Z,100295.59
2018-06-24T13:24:22.320Z,100305.05
2018-06-24T13:26:52.410Z,100307.12
2018-06-24T13:29:22.466Z,100311.59
2018-06-24T13:31:52.362Z,100314.97
2018-06-24T13:34:22.765Z,100318.80
2018-06-24T13:36:52.682Z,100321.14
2018-06-24T13:39:22.830Z,100324.98
2018-06-24T13:41:52.784Z,100320.80
2018-06-24T13:44:22.786Z,100319.47
2018-06-24T13:46:52.741Z,100307.89
2018-06-24T13:49:22.633Z,100293.48
2018-06-24T13:51:52.970Z,100292.59
2018-06-24T13:54:23.441Z,100291.02
2018-06-24T13:56:53.513Z,100306.36
2018-06-24T13:59:23.982Z,100294.69
2018-06-24T14:01:53.907Z,100309.27
2018-06-24T14:04:23.831Z,100309.91
2018-06-24T14:06:53.724Z,100312.78
2018-06-24T14:09:23.632Z,100310.78
2018-06-24T14:11:53.556Z,100310.47
2018-06-24T14:14:23.693Z,100308.34
2018-06-24T14:16:53.591Z,100299.09
2018-06-24T14:19:23.549Z,100309.20
2018-06-24T14:21:53.430Z,100310.06
2018-06-24T14:24:23.395Z,100311.17
2018-06-24T14:26:53.286Z,100308.33
2018-06-24T14:29:23.255Z,100329.43
2018-06-24T14:31:53.448Z,100300.12
2018-06-24T14:34:23.376Z,100299.82
2018-06-24T14:36:53.290Z,100299.75
2018-06-24T14:39:23.313Z,100298.18
2018-06-24T14:41:53.237Z,100302.06
2018-06-24T14:44:23.126Z,100306.39
2018-06-24T14:46:59.779Z,100308.19
2018-06-24T14:49:29.690Z,100299.21
2018-06-24T14:52:00.895Z,100300.84
2018-06-24T14:54:30.792Z,100301.08
2018-06-24T14:57:00.752Z,100295.13
2018-06-24T14:59:30.635Z,100306.87
2018-06-24T15:02:00.570Z,100297.10
2018-06-24T15:04:30.557Z,100303.96
2018-06-24T15:07:00.675Z,100308.42
2018-06-24T15:09:30.982Z,100302.98
2018-06-24T15:12:01.254Z,100304.56
2018-06-24T15:14:31.185Z,100301.04
2018-06-24T15:17:01.431Z,100307.27
2018-06-24T15:19:31.291Z,100302.84
2018-06-24T15:22:01.256Z,100303.23
2018-06-24T15:24:31.231Z,100299.91
2018-06-24T15:27:01.269Z,100309.86
2018-06-24T15:29:31.612Z,100295.90
2018-06-24T15:32:01.748Z,100295.80
2018-06-24T15:34:31.595Z,100301.86
2018-06-24T15:37:01.562Z,100293.93
2018-06-24T15:39:31.507Z,100294.84
2018-06-24T15:42:01.559Z,100300.77
2018-06-24T15:44:31.527Z,100310.54
2018-06-24T15:47:01.754Z,100289.73
2018-06-24T15:49:31.723Z,100290.23
2018-06-24T15:52:01.722Z,100298.55
2018-06-24T15:54:31.637Z,100292.16
2018-06-24T15:57:01.568Z,100297.91
2018-06-24T15:59:31.509Z,100286.66
2018-06-24T16:02:01.713Z,100303.52
2018-06-24T16:04:32.064Z,100297.20
2018-06-24T16:07:02.299Z,100301.86
2018-06-24T16:09:32.220Z,100297.45
2018-06-24T16:12:02.358Z,100301.23
2018-06-24T16:14:32.256Z,100288.39
2018-06-24T16:17:02.131Z,100294.08
2018-06-24T16:19:32.060Z,100300.52
2018-06-24T16:22:01.989Z,100295.93
2018-06-24T16:24:31.999Z,100304.52
2018-06-24T16:27:01.969Z,100304.58
2018-06-24T16:29:31.918Z,100308.11
2018-06-24T16:32:02.736Z,100299.81
2018-06-24T16:34:32.679Z,100310.05
2018-06-24T16:37:02.549Z,100311.66
2018-06-24T16:39:32.562Z,100302.73
2018-06-24T16:42:02.631Z,100313.08
2018-06-24T16:44:32.661Z,100313.08
2018-06-24T16:47:02.533Z,100311.63
2018-06-24T16:49:32.570Z,100323.73
2018-06-24T16:52:02.593Z,100322.20
2018-06-24T16:54:32.537Z,100317.53
2018-06-24T16:57:02.641Z,100315.88
2018-06-24T16:59:32.526Z,100316.89
2018-06-24T17:02:02.651Z,100312.88
2018-06-24T17:04:32.601Z,100317.20
2018-06-24T17:07:02.500Z,100316.23
2018-06-24T17:09:32.712Z,100307.58
2018-06-24T17:12:02.749Z,100309.33
2018-06-24T17:14:33.723Z,100309.17
2018-06-24T17:17:03.894Z,100315.44
2018-06-24T17:19:34.026Z,100314.03
2018-06-24T17:22:04.629Z,100312.59
2018-06-24T17:24:34.586Z,100304.38
2018-06-24T17:27:04.576Z,100314.25
2018-06-24T17:29:34.529Z,100318.16
2018-06-24T17:32:04.644Z,100320.62
2018-06-24T17:34:34.555Z,100321.42
2018-06-24T17:37:04.438Z,100318.44
2018-06-24T17:39:34.445Z,100316.22
2018-06-24T17:42:04.345Z,100317.38
2018-06-24T17:44:34.657Z,100328.84
2018-06-24T17:47:04.569Z,100328.52
2018-06-24T17:49:34.466Z,100330.22
2018-06-24T17:52:04.422Z,100325.80
2018-06-24T17:54:34.828Z,100324.58
2018-06-24T17:57:04.741Z,100332.77
2018-06-24T17:59:34.880Z,100343.28
2018-06-24T18:02:04.941Z,100315.73
2018-06-24T18:04:35.182Z,100343.16
2018-06-24T18:07:05.385Z,100341.14
2018-06-24T18:09:35.327Z,100340.53
2018-06-24T18:12:05.278Z,100341.70
2018-06-24T18:14:35.243Z,100344.77
2018-06-24T18:17:06.381Z,100343.20
2018-06-24T18:19:37.406Z,100348.05
2018-06-24T18:22:07.634Z,100347.82
2018-06-24T18:24:38.115Z,100352.19
2018-06-24T18:27:08.417Z,100352.84
2018-06-24T18:29:38.710Z,100347.89
2018-06-24T18:32:08.944Z,100355.25
2018-06-24T18:34:39.576Z,100358.54
2018-06-24T18:37:10.029Z,100358.90
2018-06-24T18:39:39.937Z,100360.39
2018-06-24T18:42:09.843Z,100368.83
2018-06-24T18:44:40.285Z,100364.59
2018-06-24T18:47:10.500Z,100369.68
2018-06-24T18:49:40.450Z,100373.85
2018-06-24T18:52:10.423Z,100369.88
2018-06-24T18:54:40.363Z,100373.17
2018-06-24T18:57:10.756Z,100371.87
2018-06-24T18:59:41.138Z,100373.88
2018-06-24T19:02:11.198Z,100384.33
2018-06-24T19:04:41.347Z,100386.31
2018-06-24T19:07:11.273Z,100393.70
2018-06-24T19:09:41.400Z,100397.56
2018-06-24T19:12:11.253Z,100395.55
2018-06-24T19:14:41.157Z,100400.40
2018-06-24T19:17:11.080Z,100398.77
2018-06-24T19:19:41.051Z,100409.13
2018-06-24T19:22:11.106Z,100402.17
2018-06-24T19:24:41.017Z,100404.17
2018-06-24T19:27:11.158Z,100414.48
2018-06-24T19:29:41.029Z,100411.49
2018-06-24T19:32:10.891Z,100428.56
2018-06-24T19:34:41.092Z,100427.39
2018-06-24T19:37:10.968Z,100436.17
2018-06-24T19:39:41.128Z,100438.33
2018-06-24T19:42:11.378Z,100432.12
2018-06-24T19:44:41.714Z,100432.66
2018-06-24T19:47:11.804Z,100427.16
2018-06-24T19:49:42.000Z,100433.48
2018-06-24T19:52:12.038Z,100432.48
2018-06-24T19:54:42.985Z,100434.15
2018-06-24T19:57:12.974Z,100429.47
2018-06-24T19:59:43.105Z,100434.96
2018-06-24T20:02:12.970Z,100422.48
2018-06-24T20:04:43.045Z,100424.64
2018-06-24T20:07:13.043Z,100420.98
2018-06-24T20:09:43.021Z,100411.81
2018-06-24T20:12:13.035Z,100420.18
2018-06-24T20:14:43.041Z,100431.16
2018-06-24T20:17:13.123Z,100431.64
2018-06-24T20:19:43.071Z,100434.80
2018-06-24T20:22:12.967Z,100431.47
2018-06-24T20:24:43.059Z,100433.80
2018-06-24T20:27:13.390Z,100441.81
2018-06-24T20:29:43.926Z,100440.49
2018-06-24T20:32:13.808Z,100447.82
2018-06-24T20:34:44.028Z,100450.17
2018-06-24T20:37:14.012Z,100452.50
2018-06-24T20:39:44.086Z,100449.84
2018-06-24T20:42:14.053Z,100453.51
2018-06-24T20:44:44.001Z,100456.17
2018-06-24T20:47:15.738Z,100450.84
2018-06-24T20:49:46.958Z,100452.17
2018-06-24T20:52:16.910Z,100451.17
2018-06-24T20:54:46.839Z,100442.52
2018-06-24T20:57:16.818Z,100437.52
2018-06-24T20:59:46.792Z,100439.38
2018-06-24T21:02:16.634Z,100443.20
2018-06-24T21:04:46.497Z,100442.38
2018-06-24T21:07:16.530Z,100436.87
2018-06-24T21:09:46.364Z,100433.55
2018-06-24T21:12:18.189Z,100431.88
2018-06-24T21:14:48.034Z,100433.89
2018-06-24T21:17:17.846Z,100438.55
2018-06-24T21:19:47.710Z,100432.41
2018-06-24T21:22:17.562Z,100437.07
2018-06-24T21:24:47.531Z,100438.89
2018-06-24T21:27:17.607Z,100437.56
2018-06-24T21:29:48.015Z,100434.75
2018-06-24T21:32:17.829Z,100432.57
2018-06-24T21:34:47.758Z,100426.91
2018-06-24T21:37:17.669Z,100432.58
2018-06-24T21:42:52.603Z,100428.24
2018-06-24T21:45:22.690Z,100434.91
2018-06-24T21:47:52.735Z,100433.24
2018-06-24T21:50:22.681Z,100430.09
2018-06-24T21:52:52.648Z,100394.29
2018-06-24T21:55:22.656Z,100433.24
2018-06-24T21:57:53.295Z,100434.09
2018-06-24T22:00:24.714Z,100432.25
2018-06-24T22:02:54.928Z,100428.91
2018-06-24T22:05:25.415Z,100433.58
2018-06-24T22:07:55.458Z,100437.91
2018-06-24T22:10:26.158Z,100435.24
2018-06-24T22:12:56.059Z,100441.23
2018-06-24T22:15:27.031Z,100444.37
2018-06-24T22:17:58.085Z,100438.38
2018-06-24T22:20:29.010Z,100453.53
2018-06-24T22:23:00.053Z,100457.84
2018-06-24T22:25:30.979Z,100453.34
2018-06-24T22:28:01.916Z,100455.19
2018-06-24T22:30:32.271Z,100457.00
2018-06-24T22:33:02.955Z,100452.20
2018-06-24T22:35:34.059Z,100444.55
2018-06-24T22:38:04.917Z,100447.22
2018-06-24T22:40:36.343Z,100450.69
2018-06-24T22:43:07.481Z,100444.88
2018-06-24T22:45:38.134Z,100454.54
2018-06-24T22:48:08.989Z,100454.54
2018-06-24T22:50:39.961Z,100452.88
2018-06-24T22:53:09.878Z,100451.20
2018-06-24T22:55:41.128Z,100450.02
2018-06-24T22:58:11.916Z,100453.87
2018-06-24T23:00:43.503Z,100458.19
2018-06-24T23:03:14.062Z,100464.33
2018-06-24T23:05:44.002Z,100462.84
2018-06-24T23:08:14.983Z,100464.50
2018-06-24T23:10:46.007Z,100458.84
2018-06-24T23:13:16.970Z,100465.13
2018-06-24T23:15:48.028Z,100459.61
2018-06-24T23:18:18.931Z,100462.11
2018-06-24T23:20:50.368Z,100461.09
2018-06-24T23:23:21.112Z,100463.90
2018-06-24T23:25:51.122Z,100465.08
2018-06-24T23:28:21.964Z,100464.72
2018-06-24T23:30:52.348Z,100465.69
2018-06-24T23:33:22.878Z,100469.34
2018-06-24T23:35:54.252Z,100468.67
2018-06-24T23:38:24.984Z,100470.48
2018-06-24T23:40:54.986Z,100479.98
2018-06-24T23:43:25.882Z,100480.13
2018-06-24T23:46:05.621Z,100477.80
2018-06-24T23:48:35.572Z,100473.66
2018-06-24T23:51:05.651Z,100479.46
2018-06-24T23:53:36.178Z,100469.00
2018-06-24T23:56:06.908Z,100479.64
2018-06-24T23:58:36.811Z,100479.42
